Becker, MN

3:01 PM CDT on April 19, 2015 (GMT -0500)
Eagle Lake | | Change Station
CLOSE
Current Station
Personal Weather Station
Location: Big Lake, MN
Elevation: 961 ft
Nearby Weather Stations

Elev 961 ft 45.39 °N, 93.75 °W | Updated 2 minutes ago

Overcast
Overcast
55.2 °F
Feels Like 55.2 °F
N
4.7
Wind Variable Wind from NW

Today
High -- | Low -- °F
--% Chance of Precip.
Yesterday
High -- | Low -- °F
Precip. -- in
6:23 AM 8:06 PM
New Moon, 2% visible
Pressure 29.64 in
Visibility 10.0 miles
Clouds Mostly Cloudy 2100 ft
Mostly Cloudy 2600 ft
Overcast 3100 ft
Dew Point 48 °F
Humidity 77%
Rainfall 0.15 in
Snow Depth Not available.
UV 2 out of 12
Pollen 2.50 out of 12
Air Quality Not available.
Flu Activity Local Activity
METAR KMGG 191957Z AUTO 27015G20KT 10SM BKN021 BKN026 OVC031 12/09 A2964 RMK AO2 T01230087

More Conditions Fewer Conditions

Pressure 29.64 in
Visibility 10.0 miles
Clouds Mostly Cloudy 2100 ft
Mostly Cloudy 2600 ft
Overcast 3100 ft
Dew Point 48 °F
Humidity 77%
Rainfall 0.15 in
Snow Depth Not available.
UV 2 out of 12
Pollen 2.50 out of 12
Air Quality Not available.
Flu Activity Local Activity
METAR KMGG 191957Z AUTO 27015G20KT 10SM BKN021 BKN026 OVC031 12/09 A2964 RMK AO2 T01230087

More Conditions Fewer Conditions

10-Day Weather Forecast

Almanac

Astronomy

Apr. 19, 2015 Rise Set
Actual Time
Civil Twilight
Nautical Twilight
Astronomical Twilight
Moon
Length of Visible Light
Length of Day
Tomorrow will be .
, % of the Moon is Illuminated

Today's Extremes

State Highs State Lows

Community

WunderPhotos

Upload Photos

1,814,956 photos uploaded!

WunderBlogs® & News

Nearby

Air Quality

  Air Quality AQ Index Pollutant
Not available.

Snow Depth

Station Depth Elevation

Earthquake Activity

City Distance Mag. Time & Date
Minimum magnitude displayed is 2.5.

Coastal Water Temperatures

Place Temperature

Stations

Nearby Weather Stations

Station Location Temp. Windchill Dew Point Humidity Wind Precip. Elev Updated Type